Time;durP1;ratioP1;P1;durP2;ratioP2;P2;SDS_P1;SDS_P2;PMS_P1;PMS_P2;Temp;Humidity;BMP_temperature;BMP_pressure;BME280_temperature;BME280_humidity;BME280_pressure;Samples;Min_cycle;Max_cycle;Signal;HPM_P1;HPM_P2
2022/07/08 00:00:14;;;;;;;5.43;2.13;;;22.10;49.80;;;-142.21;52.66;112049.66;5094430;28;20299;-79
2022/07/08 00:02:42;;;;;;;4.37;2.47;;;22.10;50.00;;;-142.21;53.04;112049.66;5094620;28;20212;-78
2022/07/08 00:05:10;;;;;;;4.53;2.17;;;22.10;50.00;;;-142.21;53.22;112049.66;5094606;28;20224;-78
2022/07/08 00:07:37;;;;;;;8.93;2.87;;;22.10;50.10;;;-142.21;53.22;112049.66;5094426;28;20225;-78
2022/07/08 00:10:05;;;;;;;4.73;2.63;;;22.00;50.00;;;-142.21;53.44;112049.66;5094107;28;20243;-78
2022/07/08 00:12:33;;;;;;;4.00;2.10;;;22.00;50.10;;;-142.21;53.52;112049.66;5093981;28;20208;-78
2022/07/08 00:15:00;;;;;;;4.23;2.00;;;22.00;50.20;;;-142.21;53.79;112049.66;5094133;28;20209;-78
2022/07/08 00:17:27;;;;;;;4.00;1.97;;;21.90;50.20;;;-142.21;54.07;112049.66;5093541;28;20236;-78
2022/07/08 00:19:54;;;;;;;4.07;2.10;;;21.90;50.30;;;-142.21;54.40;112049.66;5094552;28;20212;-79
2022/07/08 00:22:23;;;;;;;4.60;2.00;;;21.80;50.40;;;-142.21;55.14;112049.66;5093681;28;20295;-78
2022/07/08 00:24:50;;;;;;;3.57;2.20;;;21.80;50.50;;;-142.21;55.13;112049.66;5076475;28;20312;-78
2022/07/08 00:27:17;;;;;;;2.70;1.87;;;21.70;50.50;;;-142.21;55.10;112049.66;5093247;28;20224;-79
2022/07/08 00:29:45;;;;;;;4.53;2.37;;;21.70;50.50;;;-142.21;55.71;112049.66;5075643;28;20212;-79
2022/07/08 00:32:12;;;;;;;4.10;2.60;;;21.60;50.70;;;-142.21;56.06;112049.66;5094421;28;20291;-77
2022/07/08 00:34:39;;;;;;;5.13;2.10;;;21.60;50.90;;;-142.21;55.55;112049.66;5093788;28;20210;-77
2022/07/08 00:37:07;;;;;;;4.40;2.43;;;21.50;50.70;;;-142.21;56.09;112049.66;5093662;28;20661;-80
2022/07/08 00:39:36;;;;;;;6.83;2.47;;;21.50;50.90;;;-142.21;56.61;112049.66;5093189;28;20212;-79
2022/07/08 00:42:06;;;;;;;3.13;2.27;;;21.40;50.90;;;-142.21;56.57;112049.66;5094105;28;20258;-78
2022/07/08 00:44:34;;;;;;;4.00;2.37;;;21.40;51.10;;;-142.21;57.21;112049.66;5093170;28;20212;-78
2022/07/08 00:47:01;;;;;;;4.47;2.30;;;21.30;51.10;;;-142.21;57.79;112049.66;5113953;28;20201;-78
2022/07/08 00:49:29;;;;;;;4.87;2.20;;;21.30;51.40;;;-142.21;58.28;112049.66;5113461;28;20204;-77
2022/07/08 00:51:58;;;;;;;5.37;2.47;;;21.20;51.50;;;-142.21;58.35;112049.66;5114017;28;20200;-79
2022/07/08 00:54:26;;;;;;;5.63;2.70;;;21.10;51.50;;;-142.21;58.84;112049.66;5113624;28;20545;-77
2022/07/08 00:56:55;;;;;;;5.60;2.50;;;21.10;51.70;;;-142.21;59.23;112049.66;5114319;28;20295;-78
2022/07/08 00:59:24;;;;;;;5.13;3.40;;;21.00;51.70;;;-142.21;59.30;112049.66;5113279;28;20207;-78
2022/07/08 01:01:51;;;;;;;3.23;2.70;;;20.90;51.70;;;-142.21;59.51;112049.66;5113166;28;20199;-77
2022/07/08 01:04:18;;;;;;;3.50;2.40;;;20.90;51.90;;;-142.21;60.27;112049.66;5112605;28;20299;-78
2022/07/08 01:06:46;;;;;;;4.60;2.40;;;20.80;51.90;;;-142.21;60.68;112049.66;5114383;28;20203;-77
2022/07/08 01:09:16;;;;;;;3.70;2.70;;;20.70;52.60;;;-142.21;61.71;112049.66;5113106;28;20235;-79
2022/07/08 01:11:47;;;;;;;3.50;2.53;;;20.70;52.40;;;-142.21;61.32;112049.66;5096131;28;20210;-77
2022/07/08 01:14:17;;;;;;;5.03;2.87;;;20.60;52.90;;;-142.21;61.88;112049.66;5114058;28;20279;-78
2022/07/08 01:16:44;;;;;;;4.63;2.37;;;20.50;52.40;;;-142.21;62.01;112049.66;5113877;28;20257;-78
2022/07/08 01:19:12;;;;;;;4.53;2.87;;;20.50;52.40;;;-142.21;61.58;112049.66;5112467;28;20196;-78
2022/07/08 01:21:40;;;;;;;5.10;2.60;;;20.40;52.30;;;-142.21;61.48;112049.66;5113314;28;20291;-79
2022/07/08 01:24:08;;;;;;;4.90;2.73;;;20.40;52.30;;;-142.21;61.23;112049.66;5113571;28;20200;-78
2022/07/08 01:26:35;;;;;;;5.67;2.93;;;20.30;52.30;;;-142.21;61.72;112049.66;5113140;28;20203;-77
2022/07/08 01:29:03;;;;;;;3.20;2.40;;;20.30;52.50;;;-142.21;61.73;112049.66;5092989;28;20224;-78
2022/07/08 01:31:30;;;;;;;4.90;2.70;;;20.20;52.60;;;-142.21;61.95;112049.66;5092410;28;20680;-78
2022/07/08 01:33:57;;;;;;;4.07;2.53;;;20.20;52.60;;;-142.21;61.86;112049.66;5093181;28;20248;-77
2022/07/08 01:36:24;;;;;;;5.17;2.60;;;20.20;52.50;;;-142.21;62.27;112049.66;5092396;28;20304;-78
2022/07/08 01:38:53;;;;;;;5.30;2.90;;;20.20;52.70;;;-142.21;63.25;112049.66;5092884;28;20287;-79
2022/07/08 01:41:20;;;;;;;5.53;2.53;;;20.00;53.20;;;-142.21;64.39;112049.66;5105028;28;20226;-77
2022/07/08 01:43:47;;;;;;;3.77;2.60;;;19.90;53.40;;;-142.21;65.51;112049.66;5113510;28;20279;-78
2022/07/08 01:46:15;;;;;;;5.67;2.67;;;19.80;53.70;;;-142.21;66.34;112049.66;5106555;28;20652;-77
2022/07/08 01:48:42;;;;;;;4.47;2.40;;;19.80;53.90;;;-142.21;66.96;112049.66;5113424;28;20226;-79
2022/07/08 01:51:09;;;;;;;5.83;2.97;;;19.80;54.10;;;-142.21;68.27;112049.66;5113356;28;20207;-79
2022/07/08 01:53:36;;;;;;;3.53;2.53;;;19.70;54.40;;;-142.21;69.30;112049.66;5112417;28;20204;-77
2022/07/08 01:56:06;;;;;;;3.47;2.30;;;19.70;54.60;;;-142.21;69.21;112049.66;5113239;28;20273;-77
2022/07/08 01:58:33;;;;;;;4.63;2.67;;;19.60;54.60;;;-142.21;69.89;112049.66;5111817;28;20275;-78
2022/07/08 02:01:00;;;;;;;5.13;2.73;;;19.60;54.90;;;-142.21;69.89;112049.66;5112604;28;20298;-77
2022/07/08 02:03:28;;;;;;;5.03;2.63;;;19.50;54.90;;;-142.21;70.76;112049.66;5112545;28;20199;-78
2022/07/08 02:05:55;;;;;;;3.53;2.60;;;19.50;55.20;;;-142.21;70.68;112049.66;5113156;28;20626;-78
2022/07/08 02:08:23;;;;;;;5.03;3.00;;;19.40;55.20;;;-142.21;71.82;112049.66;5112496;28;20233;-77
2022/07/08 02:13:36;;;;;;;4.40;2.73;;;19.30;55.50;;;-142.21;72.34;112049.66;5111910;28;20203;-78
2022/07/08 02:16:04;;;;;;;2.63;2.37;;;19.20;55.60;;;-142.21;72.89;112049.66;5113966;28;20239;-78
2022/07/08 02:18:32;;;;;;;3.67;2.50;;;19.10;56.00;;;-142.21;73.43;112049.66;5116354;28;20199;-78
2022/07/08 02:20:59;;;;;;;4.23;2.70;;;19.00;56.30;;;-142.21;74.65;112049.66;5116964;28;20204;-77
2022/07/08 02:23:26;;;;;;;6.27;2.60;;;18.90;56.60;;;-142.21;75.25;112049.66;5116368;28;20227;-78
2022/07/08 02:25:54;;;;;;;3.87;2.50;;;18.80;56.70;;;-142.21;75.51;112049.66;5099061;28;20531;-78
2022/07/08 02:28:21;;;;;;;4.23;2.60;;;18.80;56.90;;;-142.21;76.06;112049.66;5116044;28;20674;-78
2022/07/08 02:30:50;;;;;;;5.87;2.80;;;18.80;57.00;;;-142.21;76.80;112049.66;5117141;28;20594;-79
2022/07/08 02:33:17;;;;;;;3.13;2.70;;;18.80;57.30;;;-142.21;77.66;112049.66;5116760;28;20290;-78
2022/07/08 02:35:44;;;;;;;5.53;2.70;;;18.80;57.20;;;-142.21;78.10;112049.66;5116616;28;20253;-79
2022/07/08 02:38:12;;;;;;;3.70;2.83;;;18.70;57.30;;;-142.21;78.30;112049.66;5116388;28;20488;-77
2022/07/08 02:40:39;;;;;;;6.23;3.60;;;18.70;57.70;;;-142.21;78.38;112049.66;5116345;28;20663;-78
2022/07/08 02:43:10;;;;;;;3.43;2.83;;;18.60;57.60;;;-142.21;78.18;112049.66;5116063;28;20760;-78
2022/07/08 02:45:40;;;;;;;5.07;2.70;;;18.60;57.60;;;-142.21;78.18;112049.66;5114411;28;20449;-78
2022/07/08 02:48:09;;;;;;;4.10;2.77;;;18.50;57.70;;;-142.21;78.24;112049.66;5116151;28;20469;-79
2022/07/08 02:50:36;;;;;;;3.27;2.47;;;18.60;57.70;;;-142.21;78.85;112049.66;5115370;28;20528;-79
2022/07/08 02:53:03;;;;;;;3.80;2.80;;;18.50;57.80;;;-142.21;79.03;112049.66;5116361;28;20803;-80
2022/07/08 02:55:30;;;;;;;3.60;2.73;;;18.50;57.90;;;-142.21;79.51;112049.66;5116045;28;20541;-80
2022/07/08 02:57:57;;;;;;;6.97;2.97;;;18.50;58.00;;;-142.21;79.83;112049.66;5116137;28;20443;-79
2022/07/08 03:00:25;;;;;;;4.47;2.60;;;18.40;58.20;;;-142.21;80.04;112049.66;5115813;28;20549;-79
2022/07/08 03:02:52;;;;;;;5.63;2.87;;;18.40;58.20;;;-142.21;80.14;112049.66;5115977;28;20537;-79
2022/07/08 03:05:20;;;;;;;3.97;2.90;;;18.40;58.30;;;-142.21;80.50;112049.66;5116002;28;20465;-78
2022/07/08 03:07:48;;;;;;;3.80;3.03;;;18.30;58.50;;;-142.21;81.19;112049.66;5116090;28;20473;-78
2022/07/08 03:10:15;;;;;;;4.60;2.70;;;18.30;58.70;;;-142.21;80.77;112049.66;5114520;28;21011;-79
2022/07/08 03:12:42;;;;;;;6.17;2.87;;;18.20;58.60;;;-142.21;80.93;112049.66;5114301;28;20524;-78
2022/07/08 03:15:10;;;;;;;4.53;2.73;;;18.20;58.70;;;-142.21;81.14;112049.66;5115102;28;20286;-78
2022/07/08 03:17:37;;;;;;;4.10;2.47;;;18.20;58.90;;;-142.21;81.64;112049.66;5114322;28;20473;-79
2022/07/08 03:20:06;;;;;;;3.13;2.83;;;18.10;58.80;;;-142.21;81.54;112049.66;5114721;28;20539;-79
2022/07/08 03:22:35;;;;;;;6.17;3.37;;;18.10;59.00;;;-142.21;81.48;112049.66;5113639;28;20452;-79
2022/07/08 03:25:02;;;;;;;5.83;3.70;;;18.00;58.90;;;-142.21;81.88;112049.66;5114829;28;20445;-80
2022/07/08 03:27:30;;;;;;;5.07;3.40;;;17.90;59.10;;;-142.21;82.70;112049.66;5113080;28;20448;-80
2022/07/08 03:29:57;;;;;;;5.53;3.40;;;17.80;59.10;;;-142.21;83.28;112049.66;5114062;28;20477;-79
2022/07/08 03:32:25;;;;;;;6.37;3.30;;;17.80;59.40;;;-142.21;83.75;112049.66;5113869;28;20523;-79
2022/07/08 03:34:53;;;;;;;7.07;3.90;;;17.80;59.60;;;-142.21;83.66;112049.66;5094099;28;20843;-79
2022/07/08 03:37:20;;;;;;;5.73;3.17;;;17.70;59.70;;;-142.21;83.65;112049.66;5094046;28;20456;-78
2022/07/08 03:39:50;;;;;;;5.77;3.30;;;17.70;59.70;;;-142.21;84.13;112049.66;5094104;28;20862;-78
2022/07/08 03:42:16;;;;;;;5.37;2.90;;;17.70;59.70;;;-142.21;84.07;112049.66;5075735;28;20493;-78
2022/07/08 03:44:44;;;;;;;5.33;3.07;;;17.70;59.70;;;-142.21;84.23;112049.66;5093269;28;20449;-77
2022/07/08 03:47:11;;;;;;;3.47;3.17;;;17.60;59.80;;;-142.21;84.76;112049.66;5076458;28;20454;-78
2022/07/08 03:49:38;;;;;;;4.17;2.97;;;17.50;59.80;;;-142.21;85.03;112049.66;5092737;28;20524;-78
2022/07/08 03:52:05;;;;;;;5.03;3.40;;;17.50;60.00;;;-142.21;85.59;112049.66;5058357;28;20451;-79
2022/07/08 03:54:33;;;;;;;3.33;3.00;;;17.40;60.40;;;-142.21;85.75;112049.66;5093339;28;20529;-78
2022/07/08 03:57:01;;;;;;;6.33;3.40;;;17.40;60.50;;;-142.21;85.94;112049.66;5093571;28;21018;-78
2022/07/08 03:59:28;;;;;;;5.47;3.30;;;17.30;60.50;;;-142.21;86.38;112049.66;5093281;28;21002;-77
2022/07/08 04:01:55;;;;;;;4.70;3.00;;;17.30;60.50;;;-142.21;85.78;112049.66;5093410;28;20442;-78
2022/07/08 04:04:23;;;;;;;4.87;3.13;;;17.40;60.50;;;-142.21;86.27;112049.66;5093631;28;20443;-78
2022/07/08 04:06:50;;;;;;;4.57;2.77;;;17.40;60.60;;;-142.21;86.36;112049.66;5093690;28;20482;-78
2022/07/08 04:09:20;;;;;;;4.88;3.38;;;17.40;60.60;;;-142.21;86.23;112049.66;5054769;28;1092859;-78
2022/07/08 04:11:47;;;;;;;5.67;3.50;;;17.40;60.60;;;-142.21;86.93;112049.66;5114336;28;20212;-78
2022/07/08 04:14:15;;;;;;;5.13;3.27;;;17.40;60.90;;;-142.21;87.43;112049.66;5115122;28;20540;-77
2022/07/08 04:16:42;;;;;;;5.03;3.27;;;17.40;61.30;;;-142.21;87.63;112049.66;5113910;28;20525;-78
2022/07/08 04:19:10;;;;;;;4.40;3.13;;;17.30;61.20;;;-142.21;87.83;112049.66;5096536;28;20938;-76
2022/07/08 04:21:37;;;;;;;6.40;3.40;;;17.40;61.40;;;-142.21;89.35;112049.66;5113891;28;20528;-78
2022/07/08 04:24:05;;;;;;;6.17;2.93;;;17.40;62.10;;;-142.21;88.65;112049.66;5114655;28;20492;-78
2022/07/08 04:26:32;;;;;;;6.10;3.17;;;17.40;62.10;;;-142.21;88.74;112049.66;5114166;28;20448;-78
2022/07/08 04:29:05;;;;;;;5.47;3.17;;;17.40;62.00;;;-142.21;88.80;112049.66;5114606;28;20580;-78
2022/07/08 04:31:34;;;;;;;4.63;3.30;;;17.40;62.30;;;-142.21;87.19;112049.66;5111311;28;20508;-77
2022/07/08 04:34:01;;;;;;;4.97;3.00;;;17.40;61.50;;;-142.21;87.36;112049.66;5114102;28;20460;-77
2022/07/08 04:36:28;;;;;;;4.73;3.07;;;17.40;61.40;;;-142.21;86.66;112049.66;5113878;28;20904;-79
2022/07/08 04:38:55;;;;;;;5.80;4.03;;;17.40;62.00;;;-142.21;86.83;112049.66;5113550;28;20530;-78
2022/07/08 04:41:22;;;;;;;5.63;3.57;;;17.30;61.30;;;-142.21;86.87;112049.66;5093975;28;20524;-78
2022/07/08 04:43:50;;;;;;;5.40;4.10;;;17.30;61.60;;;-142.21;87.06;112049.66;5093381;28;20473;-78
2022/07/08 04:46:17;;;;;;;33.20;9.30;;;17.30;61.70;;;-142.21;92.84;112049.66;5106519;28;20442;-77
2022/07/08 04:48:45;;;;;;;29.37;10.07;;;17.30;63.50;;;-142.21;94.60;112049.66;5113234;28;20481;-78
2022/07/08 04:51:12;;;;;;;13.23;5.17;;;17.40;65.50;;;-142.21;92.85;112049.66;5114162;28;20473;-77
2022/07/08 04:53:40;;;;;;;6.70;4.33;;;17.50;64.40;;;-142.21;92.01;112049.66;5095313;28;20836;-77
2022/07/08 04:56:07;;;;;;;7.13;3.67;;;17.50;63.80;;;-142.21;91.09;112049.66;5113870;28;20448;-78
2022/07/08 04:58:35;;;;;;;4.70;3.50;;;17.60;63.50;;;-142.21;89.78;112049.66;5113436;28;20477;-78
2022/07/08 05:01:03;;;;;;;3.73;3.13;;;17.70;62.90;;;-142.21;89.41;112049.66;5114053;28;20454;-77
2022/07/08 05:03:30;;;;;;;4.33;2.90;;;17.70;62.50;;;-142.21;89.36;112049.66;5113538;28;20542;-77
2022/07/08 05:05:58;;;;;;;6.57;3.60;;;17.80;63.20;;;-142.21;88.12;112049.66;5113939;28;20493;-77
2022/07/08 05:08:26;;;;;;;4.27;3.37;;;17.90;61.90;;;-142.21;87.41;112049.66;5113539;28;20520;-77
2022/07/08 05:10:55;;;;;;;4.07;3.10;;;18.00;61.50;;;-142.21;87.94;112049.66;5078054;28;20796;-78
2022/07/08 05:13:22;;;;;;;6.10;3.30;;;18.10;61.70;;;-142.21;88.27;112049.66;5114075;28;20529;-78
2022/07/08 05:15:49;;;;;;;4.67;3.30;;;18.10;61.70;;;-142.21;87.87;112049.66;5112862;28;20528;-78
2022/07/08 05:18:16;;;;;;;5.63;3.47;;;18.20;61.70;;;-142.21;87.67;112049.66;5113822;28;20445;-77
2022/07/08 05:20:43;;;;;;;5.30;3.33;;;18.20;61.50;;;-142.21;87.88;112049.66;5112781;28;20552;-78
2022/07/08 05:23:12;;;;;;;7.00;3.97;;;18.30;61.70;;;-142.21;88.38;112049.66;5113099;28;20528;-78
2022/07/08 05:25:39;;;;;;;4.97;3.47;;;18.40;62.30;;;-142.21;86.42;112049.66;5092902;28;20775;-78
2022/07/08 05:28:09;;;;;;;5.07;3.63;;;18.40;61.20;;;-142.21;87.22;112049.66;5093091;28;20853;-78
2022/07/08 05:30:36;;;;;;;6.43;2.90;;;18.50;61.40;;;-142.21;89.12;112049.66;5092376;28;20243;-77
2022/07/08 05:33:03;;;;;;;5.97;3.30;;;18.50;62.10;;;-142.21;88.34;112049.66;5094820;28;20934;-76
2022/07/08 05:35:30;;;;;;;5.27;2.80;;;18.60;62.00;;;-142.21;86.80;112049.66;5112728;28;20477;-77
2022/07/08 05:37:57;;;;;;;7.67;3.53;;;18.70;62.00;;;-142.21;86.27;112049.66;5112849;28;20283;-78
2022/07/08 05:40:26;;;;;;;4.33;2.70;;;18.70;60.70;;;-142.21;86.16;112049.66;5113001;28;20953;-78
2022/07/08 05:42:56;;;;;;;5.77;3.17;;;18.80;60.80;;;-142.21;85.25;112049.66;5113510;28;20200;-76
2022/07/08 05:45:23;;;;;;;7.40;3.40;;;18.90;60.20;;;-142.21;85.45;112049.66;5113276;28;20203;-76
2022/07/08 05:47:50;;;;;;;3.73;3.20;;;18.90;60.30;;;-142.21;84.52;112049.66;5112317;28;20528;-78
2022/07/08 05:50:17;;;;;;;7.83;3.27;;;19.00;59.90;;;-142.21;85.23;112049.66;5112715;28;20302;-77
2022/07/08 05:52:44;;;;;;;4.80;2.83;;;19.10;59.90;;;-142.21;85.16;112049.66;5112444;28;20445;-80
2022/07/08 05:55:12;;;;;;;4.33;2.80;;;19.10;60.00;;;-142.21;83.13;112049.66;5112956;28;20537;-77
2022/07/08 05:57:40;;;;;;;4.23;2.63;;;19.20;59.30;;;-142.21;83.01;112049.66;5112038;28;20252;-78
2022/07/08 06:00:10;;;;;;;5.67;2.97;;;19.20;59.00;;;-142.21;81.77;112049.66;5112655;28;20245;-77
2022/07/08 06:02:37;;;;;;;4.87;2.57;;;19.40;58.90;;;-142.21;80.99;112049.66;5094265;28;20732;-79
2022/07/08 06:05:05;;;;;;;6.63;2.57;;;19.40;58.50;;;-142.21;79.53;112049.66;5090599;28;20222;-77
2022/07/08 06:07:33;;;;;;;4.27;2.50;;;19.50;58.20;;;-142.21;78.45;112049.66;5091869;28;20247;-79
2022/07/08 06:10:01;;;;;;;6.87;3.77;;;19.60;57.60;;;-142.21;78.92;112049.66;5111894;28;20243;-84
2022/07/08 06:12:29;;;;;;;7.93;2.80;;;19.60;57.40;;;-142.21;77.68;112049.66;5095798;28;20294;-83
2022/07/08 06:14:58;;;;;;;5.00;2.63;;;19.70;57.30;;;-142.21;76.36;112049.66;5113506;28;20648;-81
2022/07/08 06:17:25;;;;;;;6.03;2.60;;;19.80;56.90;;;-142.21;75.96;112049.66;5112806;28;20430;-80
2022/07/08 06:19:52;;;;;;;3.67;2.00;;;19.90;56.90;;;-142.21;76.41;112049.66;5111678;28;20211;-80
2022/07/08 06:22:19;;;;;;;5.60;2.40;;;20.00;56.80;;;-142.21;76.94;112049.66;5112605;28;20265;-78
2022/07/08 06:24:47;;;;;;;3.67;2.17;;;19.90;56.90;;;-142.21;75.70;112049.66;5112009;28;20231;-79
2022/07/08 06:27:14;;;;;;;3.80;2.10;;;20.00;56.60;;;-142.21;75.69;112049.66;5113159;28;20195;-80
2022/07/08 06:29:41;;;;;;;7.40;2.00;;;20.10;56.60;;;-142.21;74.22;112049.66;5112177;28;20287;-80
2022/07/08 06:32:10;;;;;;;4.43;2.10;;;20.10;56.10;;;-142.21;74.71;112049.66;5112453;28;20244;-82
2022/07/08 06:34:37;;;;;;;5.83;2.43;;;20.20;56.20;;;-142.21;73.66;112049.66;5111984;28;20287;-82
2022/07/08 06:37:05;;;;;;;6.47;2.50;;;20.30;56.00;;;-142.21;72.16;112049.66;5112732;28;20188;-80
2022/07/08 06:39:36;;;;;;;3.93;2.27;;;20.30;55.40;;;-142.21;71.71;112049.66;5112599;28;20223;-81
2022/07/08 06:42:07;;;;;;;4.43;2.27;;;20.40;55.20;;;-142.21;72.47;112049.66;5113203;28;20199;-82
2022/07/08 06:44:34;;;;;;;3.40;2.13;;;20.50;55.40;;;-142.21;70.61;112049.66;5112861;28;20234;-82
2022/07/08 06:47:01;;;;;;;3.20;2.20;;;20.60;55.10;;;-142.21;70.60;112049.66;5112933;28;20253;-83
2022/07/08 06:49:30;;;;;;;6.60;2.10;;;20.60;55.00;;;-142.21;70.14;112049.66;5112943;28;20223;-83
2022/07/08 06:51:57;;;;;;;4.40;1.90;;;20.70;54.80;;;-142.21;70.19;112049.66;5112511;28;20215;-82
2022/07/08 06:54:36;;;;;;;4.93;2.17;;;20.70;54.80;;;-142.21;69.79;112049.66;5112632;28;20231;-79
2022/07/08 06:57:08;;;;;;;3.07;1.90;;;20.80;54.70;;;-142.21;68.26;112049.66;5112192;28;20230;-77
2022/07/08 06:59:35;;;;;;;4.33;1.97;;;20.90;54.20;;;-142.21;67.91;112049.66;5111905;28;20283;-77
2022/07/08 07:02:03;;;;;;;5.43;2.70;;;20.90;54.00;;;-142.21;65.01;112049.66;5113070;28;20690;-78
2022/07/08 07:04:32;;;;;;;2.63;1.83;;;21.00;53.60;;;-142.21;66.18;112049.66;5115413;28;20208;-78
2022/07/08 07:06:59;;;;;;;5.07;2.00;;;21.00;53.60;;;-142.21;65.60;112049.66;5116444;28;20268;-77
2022/07/08 07:09:26;;;;;;;4.20;1.87;;;21.10;54.10;;;-142.21;63.99;112049.66;5115616;28;20315;-77
2022/07/08 07:11:54;;;;;;;3.03;1.80;;;21.20;53.00;;;-142.21;63.21;112049.66;5115107;28;20257;-77
2022/07/08 07:14:21;;;;;;;4.57;2.57;;;21.20;52.60;;;-142.21;63.04;112049.66;5115705;28;20262;-77
2022/07/08 07:16:48;;;;;;;4.77;1.87;;;21.30;52.60;;;-142.21;61.58;112049.66;5114965;28;20743;-78
2022/07/08 07:19:16;;;;;;;3.10;1.57;;;21.40;52.20;;;-142.21;62.99;112049.66;5116009;28;20253;-78
2022/07/08 07:21:44;;;;;;;2.97;1.83;;;21.50;52.50;;;-142.21;63.32;112049.66;5114975;28;20212;-76
2022/07/08 07:24:12;;;;;;;3.10;1.90;;;21.60;52.50;;;-142.21;61.99;112049.66;5115481;28;20295;-77
2022/07/08 07:26:39;;;;;;;5.10;2.10;;;21.60;52.10;;;-142.21;61.18;112049.66;5114744;28;20207;-77
2022/07/08 07:29:06;;;;;;;4.50;1.73;;;21.70;51.80;;;-142.21;61.66;112049.66;5115216;28;20239;-76
2022/07/08 07:31:34;;;;;;;5.10;2.20;;;21.80;51.90;;;-142.21;62.05;112049.66;5115781;28;20196;-80
2022/07/08 07:34:02;;;;;;;3.73;2.03;;;21.90;52.00;;;-142.21;60.13;112049.66;5115297;28;20656;-78
2022/07/08 07:36:29;;;;;;;4.50;2.00;;;22.00;51.70;;;-142.21;59.38;112049.66;5115290;28;20238;-77
2022/07/08 07:38:58;;;;;;;3.40;2.03;;;22.00;51.40;;;-142.21;59.19;112049.66;5115002;28;20204;-77
2022/07/08 07:41:26;;;;;;;3.47;2.20;;;22.00;51.10;;;-142.21;59.07;112049.66;5115344;28;20245;-78
2022/07/08 07:43:53;;;;;;;5.60;2.00;;;22.10;51.10;;;-142.21;60.22;112049.66;5114836;28;20732;-77
2022/07/08 07:46:20;;;;;;;3.47;2.20;;;22.10;51.20;;;-142.21;59.43;112049.66;5115222;28;20253;-78
2022/07/08 07:48:47;;;;;;;3.43;2.10;;;22.00;51.10;;;-142.21;58.95;112049.66;5114568;28;20193;-77
2022/07/08 07:51:15;;;;;;;4.33;1.73;;;22.10;50.90;;;-142.21;60.02;112049.66;5114826;28;20227;-77
2022/07/08 07:53:42;;;;;;;3.90;1.97;;;22.10;51.00;;;-142.21;60.74;112049.66;5114513;28;20260;-78
2022/07/08 07:56:11;;;;;;;3.13;1.73;;;22.20;51.30;;;-142.21;57.83;112049.66;5114807;28;20204;-80
2022/07/08 07:58:38;;;;;;;5.33;1.93;;;22.30;50.60;;;-142.21;57.75;112049.66;5114575;28;20238;-77
2022/07/08 08:01:06;;;;;;;4.87;2.20;;;22.40;50.60;;;-142.21;56.65;112049.66;5114660;28;20198;-75
2022/07/08 08:03:34;;;;;;;3.20;2.00;;;22.50;50.30;;;-142.21;55.00;112049.66;5114609;28;20768;-77
2022/07/08 08:06:01;;;;;;;3.73;2.10;;;22.50;49.90;;;-142.21;54.72;112049.66;5114520;28;20219;-78
2022/07/08 08:08:31;;;;;;;2.67;1.50;;;22.50;49.70;;;-142.21;55.90;112049.66;5114616;28;20555;-79
2022/07/08 08:10:59;;;;;;;5.00;1.90;;;22.50;49.90;;;-142.21;55.94;112049.66;5114055;28;20233;-77
2022/07/08 08:13:28;;;;;;;4.63;1.67;;;22.60;49.90;;;-142.21;54.81;112049.66;5113344;28;20294;-78
2022/07/08 08:15:56;;;;;;;5.03;1.57;;;22.60;49.60;;;-142.21;52.35;112049.66;5114100;28;20218;-77
2022/07/08 08:18:24;;;;;;;3.97;1.70;;;22.70;48.80;;;-142.21;54.01;112049.66;5114727;28;20280;-80
2022/07/08 08:20:51;;;;;;;2.80;1.63;;;22.80;49.20;;;-142.21;49.61;112049.66;5114012;28;20283;-79
2022/07/08 08:23:19;;;;;;;2.97;1.60;;;22.90;48.10;;;-142.21;52.04;112049.66;5114403;28;20252;-78
2022/07/08 08:25:46;;;;;;;2.97;1.40;;;22.90;48.60;;;-142.21;54.38;112049.66;5113748;28;20208;-78
2022/07/08 08:28:13;;;;;;;4.00;1.70;;;23.10;50.00;;;-142.21;53.67;112049.66;5114095;28;20247;-76
2022/07/08 08:30:42;;;;;;;5.47;1.60;;;23.30;49.40;;;-142.21;50.02;112049.66;5113426;28;20265;-79
2022/07/08 08:33:09;;;;;;;4.80;1.83;;;23.40;48.10;;;-142.21;47.86;112049.66;5114142;28;20725;-80
2022/07/08 08:35:36;;;;;;;3.53;1.37;;;23.40;47.10;;;-142.21;48.28;112049.66;5114041;28;20229;-79
2022/07/08 08:38:04;;;;;;;2.77;1.73;;;23.50;47.20;;;-142.21;50.31;112049.66;5114046;28;20207;-78
2022/07/08 08:40:32;;;;;;;3.10;1.67;;;23.60;47.90;;;-142.21;49.33;112049.66;5114338;28;20245;-78
2022/07/08 08:43:00;;;;;;;5.73;1.80;;;23.70;47.70;;;-142.21;50.28;112049.66;5113482;28;20191;-77
2022/07/08 08:45:28;;;;;;;2.53;1.40;;;23.80;47.80;;;-142.21;48.47;112049.66;5113850;28;20195;-79
2022/07/08 08:48:06;;;;;;;3.57;1.67;;;23.90;47.30;;;-142.21;46.02;112049.66;5113513;28;20215;-77
2022/07/08 08:50:54;;;;;;;5.47;1.70;;;24.10;46.30;;;-142.21;46.42;112049.66;5114225;28;20267;-79
2022/07/08 08:53:29;;;;;;;7.37;1.80;;;24.20;46.40;;;-142.21;43.55;112049.66;5113843;28;20183;-79
2022/07/08 08:55:57;;;;;;;3.87;1.50;;;24.20;44.90;;;-142.21;44.63;112049.66;5113378;28;20203;-79
2022/07/08 08:58:25;;;;;;;3.03;1.20;;;24.20;45.40;;;-142.21;45.79;112049.66;5113887;28;20605;-78
2022/07/08 09:00:53;;;;;;;2.93;1.60;;;24.30;46.20;;;-142.21;45.42;112049.66;5113212;28;20213;-79
2022/07/08 09:03:23;;;;;;;2.70;1.90;;;24.30;46.10;;;-142.21;43.78;112049.66;5113805;28;20203;-81
2022/07/08 09:05:50;;;;;;;1.60;1.20;;;24.30;45.00;;;-142.21;44.71;112049.66;5113057;28;20261;-80
2022/07/08 09:08:18;;;;;;;4.33;1.47;;;24.40;45.30;;;-142.21;45.34;112049.66;5113583;28;20200;-77
2022/07/08 09:10:45;;;;;;;3.23;1.57;;;24.40;45.80;;;-142.21;44.56;112049.66;5112489;28;20255;-79
2022/07/08 09:13:16;;;;;;;2.33;1.50;;;24.50;45.50;;;-142.21;42.78;112049.66;5113474;28;20579;-80
2022/07/08 09:15:46;;;;;;;2.50;1.50;;;24.60;44.60;;;-142.21;43.97;112049.66;5112952;28;20245;-80
2022/07/08 09:18:15;;;;;;;2.73;1.43;;;24.60;44.80;;;-142.21;43.07;112049.66;5113518;28;20604;-79
2022/07/08 09:20:47;;;;;;;5.27;2.20;;;24.50;44.40;;;-142.21;42.06;112049.66;5113106;28;20628;-79
2022/07/08 09:23:18;;;;;;;3.40;1.47;;;24.50;43.60;;;-142.21;41.57;112049.66;5113314;28;20187;-80
2022/07/08 09:25:51;;;;;;;2.60;1.43;;;24.40;42.90;;;-142.21;44.54;112049.66;5112539;28;20219;-80
2022/07/08 09:28:30;;;;;;;2.30;1.40;;;24.40;45.30;;;-142.21;42.26;112049.66;5112944;28;20198;-80
2022/07/08 09:30:58;;;;;;;2.80;1.20;;;24.40;43.90;;;-142.21;44.06;112049.66;5112532;28;20226;-82
2022/07/08 09:33:26;;;;;;;2.80;1.50;;;24.50;45.20;;;-142.21;41.92;112049.66;5113024;28;20207;-79
2022/07/08 09:36:00;;;;;;;3.97;1.47;;;24.50;44.00;;;-142.21;43.42;112049.66;5112531;28;20199;-76
2022/07/08 09:38:29;;;;;;;3.10;1.37;;;24.60;45.30;;;-142.21;44.13;112049.66;5113075;28;20184;-79
2022/07/08 09:40:57;;;;;;;4.33;1.57;;;24.70;45.10;;;-142.21;41.94;112049.66;5113026;28;20256;-79
2022/07/08 09:43:29;;;;;;;2.80;1.20;;;24.80;44.10;;;-142.21;42.56;112049.66;5112539;28;20199;-81
2022/07/08 09:46:04;;;;;;;3.90;1.63;;;24.90;44.10;;;-142.21;41.92;112049.66;5108957;28;20611;-83
2022/07/08 09:48:31;;;;;;;4.10;1.23;;;24.90;43.70;;;-142.21;42.01;112049.66;5095378;28;20192;-78
2022/07/08 09:51:05;;;;;;;4.13;1.50;;;24.90;43.70;;;-142.21;42.66;112049.66;5112387;28;20261;-77
2022/07/08 09:53:33;;;;;;;2.43;1.40;;;24.90;44.00;;;-142.21;42.94;112049.66;5113384;28;20196;-82
2022/07/08 09:56:00;;;;;;;2.47;1.57;;;25.00;44.50;;;-142.21;42.42;112049.66;5112296;28;20199;-80
2022/07/08 09:58:30;;;;;;;3.50;1.47;;;25.10;43.80;;;-142.21;42.41;112049.66;5112517;28;20253;-80
2022/07/08 10:01:00;;;;;;;2.47;1.27;;;25.30;44.10;;;-142.21;43.28;112049.66;5111032;28;20252;-77
2022/07/08 10:03:29;;;;;;;3.70;1.70;;;25.30;44.50;;;-142.21;41.83;112049.66;5095557;28;20549;-81
2022/07/08 10:05:56;;;;;;;2.87;1.30;;;25.40;43.70;;;-142.21;40.49;112049.66;5112013;28;20219;-77